createdAt,value
2023-04-22T00:00:24.648Z,23.25
2023-04-22T00:02:58.307Z,17.58
2023-04-22T00:05:33.306Z,17.75
2023-04-22T00:08:06.981Z,22.98
2023-04-22T00:10:40.644Z,21.52
2023-04-22T00:13:14.098Z,19.10
2023-04-22T00:15:47.707Z,21.08
2023-04-22T00:18:21.191Z,17.05
2023-04-22T00:20:56.185Z,20.38
2023-04-22T00:23:29.678Z,21.92
2023-04-22T00:26:03.547Z,22.35
2023-04-22T00:28:36.989Z,20.13
2023-04-22T00:31:10.499Z,16.55
2023-04-22T00:33:44.041Z,24.85
2023-04-22T00:36:18.910Z,22.33
2023-04-22T00:38:52.696Z,16.95
2023-04-22T00:41:26.550Z,19.67
2023-04-22T00:44:01.556Z,18.77
2023-04-22T00:46:36.540Z,20.13
2023-04-22T00:49:10.547Z,26.95
2023-04-22T00:51:45.425Z,23.45
2023-04-22T00:54:18.922Z,22.17
2023-04-22T00:56:52.377Z,25.52
2023-04-22T00:59:27.624Z,17.42
2023-04-22T01:02:01.891Z,18.17
2023-04-22T01:04:36.529Z,18.67
2023-04-22T01:07:11.506Z,16.77
2023-04-22T01:09:45.046Z,21.25
2023-04-22T01:12:18.649Z,15.77
2023-04-22T01:14:52.299Z,19.33
2023-04-22T01:17:26.063Z,18.75
2023-04-22T01:19:59.897Z,18.83
2023-04-22T01:22:42.706Z,16.20
2023-04-22T01:25:17.608Z,17.05
2023-04-22T01:27:51.504Z,19.80
2023-04-22T01:30:24.974Z,17.90
2023-04-22T01:32:58.548Z,18.98
2023-04-22T01:35:37.039Z,16.48
2023-04-22T01:38:12.657Z,19.67
2023-04-22T01:40:47.647Z,17.88
2023-04-22T01:43:21.341Z,20.63
2023-04-22T01:45:55.331Z,20.45
2023-04-22T01:48:29.195Z,17.75
2023-04-22T01:51:02.823Z,17.02
2023-04-22T01:53:37.505Z,17.45
2023-04-22T01:56:12.350Z,17.55
2023-04-22T01:58:45.955Z,19.58
2023-04-22T02:01:20.681Z,17.63
2023-04-22T02:03:54.281Z,16.33
2023-04-22T02:06:28.226Z,16.40
2023-04-22T02:09:01.689Z,13.38
2023-04-22T02:11:36.669Z,19.60
2023-04-22T02:14:10.146Z,19.80
2023-04-22T02:16:44.139Z,18.02
2023-04-22T02:19:17.582Z,14.13
2023-04-22T02:21:51.296Z,15.55
2023-04-22T02:24:24.782Z,20.23
2023-04-22T02:27:00.317Z,19.08
2023-04-22T02:29:34.796Z,20.67
2023-04-22T02:32:08.316Z,12.75
2023-04-22T02:34:41.926Z,15.68
2023-04-22T02:37:15.540Z,14.70
2023-04-22T02:39:48.983Z,23.95
2023-04-22T02:42:24.072Z,16.10
2023-04-22T02:44:57.552Z,14.65
2023-04-22T02:47:31.045Z,18.05
2023-04-22T02:50:04.732Z,17.45
2023-04-22T02:52:38.397Z,17.77
2023-04-22T02:55:12.034Z,16.23
2023-04-22T02:57:47.026Z,14.95
2023-04-22T03:00:20.770Z,11.55
2023-04-22T03:02:54.476Z,19.98
2023-04-22T03:05:32.428Z,16.33
2023-04-22T03:08:07.091Z,15.45
2023-04-22T03:10:40.684Z,14.20
2023-04-22T03:13:15.818Z,13.20
2023-04-22T03:15:49.943Z,19.20
2023-04-22T03:18:24.106Z,17.35
2023-04-22T03:20:57.983Z,13.52
2023-04-22T03:23:31.491Z,18.27
2023-04-22T03:26:07.330Z,13.45
2023-04-22T03:28:42.418Z,10.93
2023-04-22T03:31:16.408Z,12.77
2023-04-22T03:33:50.556Z,13.18
2023-04-22T03:39:06.466Z,17.50
2023-04-22T03:41:41.351Z,16.02
2023-04-22T03:44:16.917Z,14.23
2023-04-22T03:46:51.759Z,19.15
2023-04-22T03:49:29.407Z,19.52
2023-04-22T03:52:03.083Z,28.58
2023-04-22T03:54:38.073Z,34.63
2023-04-22T03:57:12.640Z,23.40
2023-04-22T03:59:48.156Z,17.23
2023-04-22T04:02:21.997Z,20.20
2023-04-22T04:04:55.778Z,22.67
2023-04-22T04:07:29.550Z,26.88
2023-04-22T04:10:03.071Z,33.55
2023-04-22T04:12:36.659Z,22.58
2023-04-22T04:15:12.043Z,19.30
2023-04-22T04:17:46.599Z,26.52
2023-04-22T04:20:20.490Z,22.17
2023-04-22T04:22:54.086Z,24.35
2023-04-22T04:25:29.381Z,21.33
2023-04-22T04:28:03.339Z,20.10
2023-04-22T04:30:41.735Z,19.48
2023-04-22T04:33:16.766Z,18.92
2023-04-22T04:35:52.608Z,20.92
2023-04-22T04:38:29.521Z,20.10
2023-04-22T04:41:04.401Z,19.75
2023-04-22T04:43:39.110Z,26.35
2023-04-22T04:46:29.561Z,28.42
2023-04-22T04:49:04.994Z,24.33
2023-04-22T04:51:44.212Z,27.25
2023-04-22T04:54:17.723Z,18.75
2023-04-22T04:56:51.579Z,16.55
2023-04-22T04:59:25.488Z,23.40
2023-04-22T05:02:01.134Z,30.67
2023-04-22T05:04:36.034Z,71.15
2023-04-22T05:07:09.733Z,49.15
2023-04-22T05:09:45.904Z,42.05
2023-04-22T05:12:19.776Z,39.67
2023-04-22T05:14:53.375Z,25.33
2023-04-22T05:17:29.408Z,32.67
2023-04-22T05:20:03.419Z,24.73
2023-04-22T05:22:37.580Z,16.50
2023-04-22T05:25:12.094Z,20.33
2023-04-22T05:27:50.928Z,16.45
2023-04-22T05:30:25.849Z,24.15
2023-04-22T05:33:01.496Z,21.77
2023-04-22T05:35:35.434Z,21.15
2023-04-22T05:38:09.483Z,19.17
2023-04-22T05:40:45.345Z,21.00
2023-04-22T05:43:20.943Z,17.33
2023-04-22T05:46:01.945Z,22.23
2023-04-22T05:48:36.899Z,17.45
2023-04-22T05:51:14.145Z,17.10
2023-04-22T05:53:47.649Z,15.27
2023-04-22T05:56:22.284Z,13.35
2023-04-22T05:58:55.829Z,12.25
2023-04-22T06:01:31.702Z,11.02
2023-04-22T06:04:12.738Z,19.55
2023-04-22T06:06:47.765Z,17.15
2023-04-22T06:09:21.303Z,18.08
2023-04-22T06:11:54.859Z,20.90
2023-04-22T06:14:28.875Z,18.85
2023-04-22T06:17:02.703Z,22.35
2023-04-22T06:19:38.304Z,24.55
2023-04-22T06:22:12.027Z,24.73
2023-04-22T06:24:48.233Z,30.63
2023-04-22T06:27:22.800Z,31.48
2023-04-22T06:29:56.254Z,36.00
2023-04-22T06:32:29.786Z,27.75
2023-04-22T06:35:05.044Z,25.65
2023-04-22T06:37:38.698Z,25.48
2023-04-22T06:40:15.891Z,16.40
2023-04-22T06:43:18.382Z,20.30
2023-04-22T06:46:12.154Z,21.75
2023-04-22T06:48:51.632Z,22.25
2023-04-22T06:51:45.116Z,24.23
2023-04-22T06:54:19.552Z,42.00
2023-04-22T06:56:53.252Z,19.20
2023-04-22T06:59:26.991Z,11.48
2023-04-22T07:02:00.780Z,16.58
2023-04-22T07:04:37.271Z,17.33
2023-04-22T07:07:13.013Z,11.93
2023-04-22T07:09:47.376Z,14.23
2023-04-22T07:12:20.840Z,13.32
2023-04-22T07:14:54.336Z,9.68
2023-04-22T07:17:28.043Z,14.32
2023-04-22T07:20:01.786Z,11.93
2023-04-22T07:22:36.740Z,9.80
2023-04-22T07:25:11.550Z,14.82
2023-04-22T07:27:45.284Z,13.18
2023-04-22T07:30:21.240Z,10.63
2023-04-22T07:32:54.683Z,5.90
2023-04-22T07:35:28.708Z,5.97
2023-04-22T07:38:03.656Z,7.97
2023-04-22T07:40:37.150Z,8.65
2023-04-22T07:43:10.653Z,7.35
2023-04-22T07:45:44.129Z,8.73
2023-04-22T07:48:17.829Z,10.07
2023-04-22T07:50:52.053Z,8.70
2023-04-22T07:53:26.947Z,7.53
2023-04-22T07:56:02.248Z,17.10
2023-04-22T07:58:35.835Z,10.25
2023-04-22T08:01:09.384Z,9.38
2023-04-22T08:03:43.040Z,8.90
2023-04-22T08:06:16.666Z,8.85
2023-04-22T08:08:51.624Z,7.85
2023-04-22T08:11:25.225Z,8.32
2023-04-22T08:13:58.718Z,6.75
2023-04-22T08:16:32.406Z,5.78
2023-04-22T08:19:06.045Z,4.97
2023-04-22T08:21:39.792Z,3.78
2023-04-22T08:24:14.717Z,12.13
2023-04-22T08:26:48.302Z,6.80
2023-04-22T08:29:21.848Z,5.70
2023-04-22T08:31:55.393Z,5.65
2023-04-22T08:34:29.017Z,3.92
2023-04-22T08:37:02.525Z,10.73
2023-04-22T08:39:37.655Z,4.93
2023-04-22T08:42:12.405Z,4.22
2023-04-22T08:44:47.645Z,3.30
2023-04-22T08:47:22.525Z,6.18
2023-04-22T08:49:57.124Z,4.45
2023-04-22T08:52:31.860Z,4.63
2023-04-22T08:55:07.847Z,3.92
2023-04-22T08:57:42.401Z,3.45
2023-04-22T09:00:18.654Z,6.32
2023-04-22T09:02:53.079Z,2.92
2023-04-22T09:05:28.693Z,4.85
2023-04-22T09:08:03.408Z,4.70
2023-04-22T09:10:40.272Z,7.15
2023-04-22T09:13:15.366Z,4.38
2023-04-22T09:15:49.669Z,5.57
2023-04-22T09:18:23.564Z,4.78
2023-04-22T09:20:57.890Z,6.28
2023-04-22T09:23:31.447Z,5.35
2023-04-22T09:26:06.660Z,5.10
2023-04-22T09:28:50.087Z,6.22
2023-04-22T09:31:24.280Z,14.77
2023-04-22T09:33:59.337Z,5.10
2023-04-22T09:36:37.538Z,4.68
2023-04-22T09:39:11.369Z,6.25
2023-04-22T09:41:46.276Z,12.70
2023-04-22T09:44:19.978Z,3.67
2023-04-22T09:46:55.686Z,5.03
2023-04-22T09:49:29.529Z,5.22
2023-04-22T09:52:03.137Z,4.50
2023-04-22T09:54:38.896Z,3.70
2023-04-22T09:57:17.024Z,5.70
2023-04-22T09:59:53.086Z,38.63
2023-04-22T10:02:31.000Z,9.23
2023-04-22T10:05:04.840Z,8.20
2023-04-22T10:07:38.425Z,7.07
2023-04-22T10:10:12.281Z,6.80
2023-04-22T10:12:49.168Z,4.88
2023-04-22T10:15:24.893Z,5.47
2023-04-22T10:18:01.021Z,2.55
2023-04-22T10:20:37.828Z,4.22
2023-04-22T10:23:16.191Z,5.93
2023-04-22T10:25:51.439Z,5.47
2023-04-22T10:28:30.276Z,5.97
2023-04-22T10:31:07.998Z,4.97
2023-04-22T10:33:41.719Z,4.00
2023-04-22T10:36:18.295Z,5.47
2023-04-22T10:39:23.272Z,3.08
2023-04-22T10:42:10.028Z,3.67
2023-04-22T10:44:52.976Z,5.68
2023-04-22T10:47:27.687Z,3.78
2023-04-22T10:50:12.608Z,3.33
2023-04-22T10:52:50.575Z,6.15
2023-04-22T10:55:24.632Z,3.63
2023-04-22T10:58:01.061Z,3.70
2023-04-22T11:00:53.089Z,15.70
2023-04-22T11:03:29.224Z,5.10
2023-04-22T11:06:17.093Z,3.55
2023-04-22T11:08:52.012Z,3.55
2023-04-22T11:11:26.242Z,7.05
2023-04-22T11:14:00.181Z,3.53
2023-04-22T11:16:35.467Z,4.57
2023-04-22T11:19:09.815Z,3.78
2023-04-22T11:21:44.153Z,3.97
2023-04-22T11:24:20.707Z,5.85
2023-04-22T11:26:57.097Z,3.35
2023-04-22T11:29:30.720Z,2.88
2023-04-22T11:32:06.465Z,4.03
2023-04-22T11:34:40.005Z,4.40
2023-04-22T11:37:13.508Z,5.10
2023-04-22T11:40:07.710Z,3.30
2023-04-22T11:42:40.796Z,4.82
2023-04-22T11:45:14.701Z,3.65
2023-04-22T11:47:51.522Z,6.25
2023-04-22T11:50:27.043Z,3.25
2023-04-22T11:53:02.410Z,3.83
2023-04-22T11:55:39.890Z,9.93
2023-04-22T11:58:14.961Z,2.63
2023-04-22T12:00:49.758Z,3.92
2023-04-22T12:03:26.978Z,3.95
2023-04-22T12:06:02.167Z,3.92
2023-04-22T12:08:39.782Z,2.85
2023-04-22T12:11:14.444Z,2.95
2023-04-22T12:13:47.969Z,2.60
2023-04-22T12:16:21.655Z,2.65
2023-04-22T12:18:57.220Z,6.15
2023-04-22T12:21:32.176Z,3.08
2023-04-22T12:24:11.524Z,5.88
2023-04-22T12:26:45.020Z,4.00
2023-04-22T12:29:18.726Z,4.05
2023-04-22T12:31:52.213Z,4.13
2023-04-22T12:34:27.158Z,2.40
2023-04-22T12:37:00.844Z,3.92
2023-04-22T12:39:34.360Z,10.68
2023-04-22T12:42:08.332Z,7.32
2023-04-22T12:44:42.843Z,3.28
2023-04-22T12:47:18.033Z,3.95
2023-04-22T12:49:53.058Z,1.92
2023-04-22T12:52:26.507Z,3.40
2023-04-22T12:54:59.988Z,4.25
2023-04-22T12:57:33.972Z,3.97
2023-04-22T13:00:14.236Z,3.83
2023-04-22T13:02:50.012Z,6.25
2023-04-22T13:05:25.047Z,9.25
2023-04-22T13:08:06.682Z,8.02
2023-04-22T13:10:41.468Z,3.15
2023-04-22T13:13:19.071Z,5.10
2023-04-22T13:15:54.323Z,6.15
2023-04-22T13:18:28.123Z,5.10
2023-04-22T13:21:03.261Z,2.38
2023-04-22T13:23:36.800Z,6.38
2023-04-22T13:26:10.310Z,3.75
2023-04-22T13:28:43.793Z,2.88
2023-04-22T13:31:17.302Z,2.50
2023-04-22T13:33:50.819Z,3.67
2023-04-22T13:36:26.288Z,3.75
2023-04-22T13:38:59.845Z,5.53
2023-04-22T13:41:33.951Z,3.55
2023-04-22T13:44:07.469Z,13.15
2023-04-22T13:46:41.718Z,59.95
2023-04-22T13:49:15.189Z,6.07
2023-04-22T13:51:50.053Z,3.45
2023-04-22T13:54:23.517Z,4.78
2023-04-22T13:56:57.085Z,13.45
2023-04-22T13:59:31.808Z,8.65
2023-04-22T14:02:05.378Z,3.72
2023-04-22T14:04:38.880Z,11.77
2023-04-22T14:07:13.781Z,10.55
2023-04-22T14:09:47.358Z,3.40
2023-04-22T14:12:20.931Z,4.70
2023-04-22T14:14:54.461Z,4.75
2023-04-22T14:17:28.032Z,4.53
2023-04-22T14:20:01.547Z,6.28
2023-04-22T14:22:36.450Z,10.73
2023-04-22T14:25:10.824Z,11.15
2023-04-22T14:27:44.784Z,7.10
2023-04-22T14:30:18.568Z,2.95
2023-04-22T14:32:52.278Z,3.35
2023-04-22T14:35:25.793Z,4.90
2023-04-22T14:38:00.875Z,2.45
2023-04-22T14:40:34.614Z,5.60
2023-04-22T14:43:08.606Z,2.85
2023-04-22T14:45:42.349Z,5.68
2023-04-22T14:48:15.844Z,5.70
2023-04-22T14:50:49.349Z,2.72
2023-04-22T14:53:24.276Z,4.25
2023-04-22T14:55:57.720Z,2.40
2023-04-22T14:58:31.953Z,3.88
2023-04-22T15:01:07.351Z,2.95
2023-04-22T15:03:41.547Z,5.35
2023-04-22T15:06:15.253Z,2.95
2023-04-22T15:08:51.725Z,4.05
2023-04-22T15:11:25.216Z,5.00
2023-04-22T15:13:58.695Z,3.97
2023-04-22T15:16:32.263Z,6.10
2023-04-22T15:19:05.818Z,5.43
2023-04-22T15:21:40.258Z,5.40
2023-04-22T15:24:15.233Z,5.68
2023-04-22T15:26:49.024Z,3.60
2023-04-22T15:29:22.784Z,6.40
2023-04-22T15:31:56.788Z,6.90
2023-04-22T15:34:30.557Z,3.30
2023-04-22T15:37:04.465Z,10.35
2023-04-22T15:39:39.509Z,2.90
2023-04-22T15:42:13.305Z,3.63
2023-04-22T15:44:46.766Z,6.93
2023-04-22T15:47:38.756Z,5.78
2023-04-22T15:50:12.835Z,9.55
2023-04-22T15:52:46.723Z,13.07
2023-04-22T15:55:21.942Z,4.60
2023-04-22T15:57:55.588Z,5.28
2023-04-22T16:00:29.189Z,16.83
2023-04-22T16:03:02.800Z,10.55
2023-04-22T16:05:36.735Z,21.58
2023-04-22T16:08:28.721Z,11.02
2023-04-22T16:11:04.010Z,6.72
2023-04-22T16:13:38.878Z,8.93
2023-04-22T16:16:12.433Z,13.90
2023-04-22T16:18:46.053Z,9.05
2023-04-22T16:21:19.555Z,10.35
2023-04-22T16:23:53.068Z,2.80
2023-04-22T16:26:28.020Z,3.90
2023-04-22T16:29:01.968Z,3.95
2023-04-22T16:31:35.750Z,2.83
2023-04-22T16:34:09.225Z,3.30
2023-04-22T16:36:43.016Z,41.50
2023-04-22T16:39:19.092Z,54.92
2023-04-22T16:41:55.179Z,6.00
2023-04-22T16:44:28.857Z,4.40
2023-04-22T16:47:02.458Z,4.00
2023-04-22T16:49:36.038Z,3.65
2023-04-22T16:52:09.605Z,5.30
2023-04-22T16:54:43.168Z,4.35
2023-04-22T16:57:18.022Z,3.92
2023-04-22T16:59:51.516Z,4.65
2023-04-22T17:02:25.116Z,3.97
2023-04-22T17:04:58.727Z,4.65
2023-04-22T17:07:32.397Z,5.22
2023-04-22T17:10:06.797Z,7.07
2023-04-22T17:12:41.678Z,5.07
2023-04-22T17:15:15.146Z,4.50
2023-04-22T17:17:48.653Z,4.95
2023-04-22T17:20:22.137Z,3.40
2023-04-22T17:22:55.631Z,2.42
2023-04-22T17:25:29.124Z,3.72
2023-04-22T17:28:04.556Z,7.00
2023-04-22T17:30:38.054Z,6.57
2023-04-22T17:33:11.797Z,4.18
2023-04-22T17:35:45.430Z,6.40
2023-04-22T17:38:19.705Z,7.63
2023-04-22T17:40:53.205Z,4.47
2023-04-22T17:43:28.080Z,4.38
2023-04-22T17:46:01.543Z,7.80
2023-04-22T17:48:36.628Z,6.53
2023-04-22T17:51:10.718Z,8.70
2023-04-22T17:53:44.308Z,9.00
2023-04-22T17:56:17.902Z,9.85
2023-04-22T17:58:52.740Z,11.05
2023-04-22T18:01:29.546Z,13.80
2023-04-22T18:04:03.182Z,5.72
2023-04-22T18:06:36.765Z,12.15
2023-04-22T18:09:10.365Z,13.73
2023-04-22T18:11:43.827Z,13.60
2023-04-22T18:14:20.778Z,16.55
2023-04-22T18:16:54.405Z,16.40
2023-04-22T18:19:30.899Z,16.83
2023-04-22T18:22:04.444Z,14.05
2023-04-22T18:24:38.061Z,16.13
2023-04-22T18:27:11.582Z,12.55
2023-04-22T18:29:47.984Z,14.50
2023-04-22T18:32:21.508Z,18.13
2023-04-22T18:34:55.004Z,9.63
2023-04-22T18:37:30.770Z,24.98
2023-04-22T18:40:05.855Z,24.42
2023-04-22T18:42:39.679Z,16.50
2023-04-22T18:45:16.511Z,16.80
2023-04-22T18:47:50.615Z,18.00
2023-04-22T18:50:24.108Z,15.68
2023-04-22T18:52:57.670Z,16.55
2023-04-22T18:55:31.328Z,17.85
2023-04-22T18:58:04.871Z,13.68
2023-04-22T19:00:40.002Z,19.13
2023-04-22T19:03:14.384Z,18.95
2023-04-22T19:05:47.957Z,22.67
2023-04-22T19:08:21.484Z,16.45
2023-04-22T19:10:55.452Z,18.92
2023-04-22T19:13:30.084Z,12.98
2023-04-22T19:16:05.553Z,13.65
2023-04-22T19:18:39.099Z,23.08
2023-04-22T19:21:13.155Z,15.40
2023-04-22T19:23:47.118Z,19.50
2023-04-22T19:26:21.282Z,18.63
2023-04-22T19:28:54.789Z,22.55
2023-04-22T19:31:30.808Z,19.45
2023-04-22T19:34:04.361Z,16.92
2023-04-22T19:36:37.902Z,16.90
2023-04-22T19:39:11.728Z,19.08
2023-04-22T19:41:45.211Z,17.35
2023-04-22T19:44:19.024Z,24.15
2023-04-22T19:46:54.031Z,17.00
2023-04-22T19:49:28.159Z,20.10
2023-04-22T19:52:03.548Z,23.55
2023-04-22T19:54:37.507Z,23.35
2023-04-22T19:57:12.852Z,28.33
2023-04-22T19:59:47.325Z,20.85
2023-04-22T20:02:23.885Z,17.27
2023-04-22T20:04:57.727Z,18.58
2023-04-22T20:07:32.824Z,31.33
2023-04-22T20:10:08.697Z,22.70
2023-04-22T20:12:42.893Z,25.80
2023-04-22T20:15:16.955Z,20.13
2023-04-22T20:17:52.424Z,24.50
2023-04-22T20:20:26.269Z,25.13
2023-04-22T20:23:08.036Z,22.15
2023-04-22T20:25:45.776Z,18.83
2023-04-22T20:28:20.398Z,20.83
2023-04-22T20:30:54.145Z,23.45
2023-04-22T20:33:29.236Z,22.73
2023-04-22T20:36:04.642Z,25.45
2023-04-22T20:38:38.838Z,21.80
2023-04-22T20:41:13.428Z,27.15
2023-04-22T20:43:47.257Z,29.83
2023-04-22T20:46:23.084Z,23.02
2023-04-22T20:48:58.298Z,26.38
2023-04-22T20:51:32.107Z,20.08
2023-04-22T20:54:09.823Z,22.73
2023-04-22T20:56:51.650Z,26.83
2023-04-22T20:59:25.286Z,22.80
2023-04-22T21:01:59.970Z,20.73
2023-04-22T21:04:35.677Z,20.65
2023-04-22T21:07:11.913Z,22.38
2023-04-22T21:09:45.811Z,26.63
2023-04-22T21:12:20.244Z,22.85
2023-04-22T21:14:54.490Z,22.25
2023-04-22T21:17:31.423Z,18.15
2023-04-22T21:20:09.219Z,26.85
2023-04-22T21:22:44.518Z,29.85
2023-04-22T21:25:22.060Z,24.05
2023-04-22T21:27:56.087Z,21.45
2023-04-22T21:30:30.193Z,17.35
2023-04-22T21:33:06.044Z,20.45
2023-04-22T21:35:41.811Z,18.98
2023-04-22T21:38:16.381Z,19.95
2023-04-22T21:40:50.319Z,21.70
2023-04-22T21:43:23.763Z,25.58
2023-04-22T21:45:57.252Z,22.42
2023-04-22T21:48:30.864Z,23.08
2023-04-22T21:51:05.788Z,20.25
2023-04-22T21:53:39.514Z,25.02
2023-04-22T21:56:13.048Z,22.60
2023-04-22T21:58:46.514Z,20.30
2023-04-22T22:01:20.187Z,23.55
2023-04-22T22:03:53.898Z,20.50
2023-04-22T22:06:28.998Z,22.45
2023-04-22T22:09:02.448Z,27.08
2023-04-22T22:11:36.112Z,22.83
2023-04-22T22:14:09.699Z,21.17
2023-04-22T22:16:43.929Z,29.17
2023-04-22T22:19:17.488Z,18.30
2023-04-22T22:21:52.737Z,19.90
2023-04-22T22:24:26.259Z,20.52
2023-04-22T22:26:59.710Z,21.05
2023-04-22T22:29:33.200Z,26.83
2023-04-22T22:32:06.819Z,25.63
2023-04-22T22:34:40.759Z,24.17
2023-04-22T22:37:15.926Z,31.70
2023-04-22T22:39:49.488Z,21.70
2023-04-22T22:42:22.956Z,24.17
2023-04-22T22:44:57.566Z,23.85
2023-04-22T22:47:31.207Z,19.95
2023-04-22T22:50:05.077Z,22.65
2023-04-22T22:52:40.042Z,21.88
2023-04-22T22:55:13.886Z,20.75
2023-04-22T22:57:47.339Z,20.73
2023-04-22T23:00:20.892Z,15.85
2023-04-22T23:02:54.836Z,11.63
2023-04-22T23:05:29.180Z,16.58
2023-04-22T23:08:04.074Z,17.80
2023-04-22T23:10:37.610Z,24.70
2023-04-22T23:13:11.102Z,17.42
2023-04-22T23:15:44.592Z,17.40
2023-04-22T23:18:18.900Z,21.42
2023-04-22T23:20:52.958Z,25.77
2023-04-22T23:23:29.845Z,21.52
2023-04-22T23:26:03.537Z,23.70
2023-04-22T23:28:37.679Z,23.02
2023-04-22T23:31:11.733Z,19.30
2023-04-22T23:33:50.673Z,20.00
2023-04-22T23:36:24.344Z,16.83
2023-04-22T23:38:59.247Z,20.75
2023-04-22T23:41:32.710Z,26.83
2023-04-22T23:44:06.497Z,17.85
2023-04-22T23:46:40.063Z,17.95
2023-04-22T23:49:13.574Z,16.85
2023-04-22T23:51:47.260Z,16.52
2023-04-22T23:54:22.201Z,16.73
2023-04-22T23:56:56.280Z,15.20
2023-04-22T23:59:30.356Z,19.90
